Nearby METAR Reports

Aktualna pogoda na lotniskach (dane METAR)

 

EPGD - Gdansk/Rebiechow, Poland
Distance from station: ENE 27mi, 44km
Updated: Sun, 19-Sep-2021 4:00pm PDT
Mostly Cloudy
Mostly Cloudy
 Wind from SW
Wind: SW 5 mph , 7 km/h
Temperature: 46°F , 8°C
Wind Chill: 44°F , 7°C
Dew Point: 43°F , 6°C
Humidity: 87%
Barometer: 30.06 inHg , 1018 hPa
Clouds: Mostly Cloudy
Visibility: 6 miles , 10 km
Cloud details: Mostly Cloudy 4700 ft
2021/09/19 23:00 EPGD 192300Z 22004KT 9999 BKN047 08/06 Q1018
EPSC - Szczecin/Golenio, Poland
Distance from station: WSW 128mi, 205km
Updated: Sun, 19-Sep-2021 4:00pm PDT
Overcast
Overcast
 Wind from NNW
Wind: NNW 2 mph , 4 km/h
Temperature: 50°F , 10°C
Dew Point: 46°F , 8°C
Humidity: 88%
Barometer: 30.09 inHg , 1019 hPa
Clouds: Overcast
Visibility: 6 miles , 10 km
Cloud details: Mostly Cloudy 4000 ft
Overcast 4500 ft
2021/09/19 23:00 EPSC 192300Z 34002KT 9999 BKN040 OVC045 10/08 Q1019
 
EPPO - Poznan/Lawica, Poland
Distance from station: SSW 131mi, 210km
Updated: Sun, 19-Sep-2021 4:00pm PDT
Mostly Cloudy
Mostly Cloudy
 Wind from NNW
Wind: NNW 2 mph , 4 km/h
Temperature: 48°F , 9°C
Dew Point: 43°F , 6°C
Humidity: 82%
Barometer: 30.06 inHg , 1018 hPa
Clouds: Mostly Cloudy
Visibility: 6 miles , 10 km
Cloud details: Mostly Cloudy 4000 ft
2021/09/19 23:00 EPPO 192300Z 34002KT 9999 BKN040 09/06 Q1018
EPLL - Lodz/Lublinek, Poland
Distance from station: SSE 184mi, 296km
Updated: Sun, 19-Sep-2021 4:00pm PDT
Overcast
Overcast
 Wind from NW
Wind: NW 6 mph , 9 km/h
Temperature: 50°F , 10°C
Wind Chill: 48°F , 9°C
Dew Point: 46°F , 8°C
Humidity: 88%
Barometer: 30 inHg , 1016 hPa
Clouds: Overcast
Visibility: 6 miles , 10 km
Cloud details: Partly Cloudy 800 ft
Mostly Cloudy 1000 ft
Overcast 1300 ft
2021/09/19 23:00 EPLL 192300Z 32005KT 270V360 9999 SCT008 BKN010 OVC013 10/08 Q1016
 
EPWA - Warsaw/Okecie, Poland
Distance from station: SE 191mi, 307km
Updated: Sun, 19-Sep-2021 4:00pm PDT
Mostly Cloudy
Mostly Cloudy
 Wind from NW
Wind: NW 10 mph , 17 km/h
Temperature: 46°F , 8°C
Wind Chill: 41°F , 5°C
Dew Point: 41°F , 5°C
Humidity: 82%
Barometer: 29.97 inHg , 1015 hPa
Clouds: Mostly Cloudy
Visibility: 6 miles , 10 km
Cloud details: Partly Cloudy 1700 ft
Mostly Cloudy 3300 ft
2021/09/19 23:00 EPWA 192300Z 32009KT 9999 SCT017 BKN033 08/05 Q1015 NOSIG
EPWR - Wroclaw/Strachow, Poland
Distance from station: S 219mi, 352km
Updated: Sun, 19-Sep-2021 4:00pm PDT
Clear
Clear
 Wind from NNW
Wind: NNW 5 mph , 7 km/h
Temperature: 41°F , 5°C
Wind Chill: 38°F , 3°C
Dew Point: 39°F , 4°C
Humidity: 93%
Barometer: 30.06 inHg , 1018 hPa
Summary: Clear
Visibility: greater than 7 miles , 10 km
2021/09/19 23:00 EPWR 192300Z 33004KT CAVOK 05/04 Q1018

Metar display script from Saratoga-Weather.org